createdAt,value
2018-09-02T00:02:14.919Z,12.34
2018-09-02T00:04:45.064Z,12.31
2018-09-02T00:07:14.911Z,12.26
2018-09-02T00:09:44.747Z,12.31
2018-09-02T00:12:14.883Z,12.25
2018-09-02T00:14:44.761Z,12.25
2018-09-02T00:17:14.887Z,12.24
2018-09-02T00:19:44.733Z,12.22
2018-09-02T00:22:14.884Z,12.24
2018-09-02T00:24:44.776Z,12.23
2018-09-02T00:27:14.676Z,12.25
2018-09-02T00:29:44.833Z,12.29
2018-09-02T00:32:14.756Z,12.30
2018-09-02T00:34:44.606Z,12.22
2018-09-02T00:37:14.729Z,12.21
2018-09-02T00:39:44.510Z,12.18
2018-09-02T00:42:14.380Z,12.18
2018-09-02T00:44:44.709Z,12.16
2018-09-02T00:47:14.570Z,12.15
2018-09-02T00:49:44.396Z,12.11
2018-09-02T00:52:14.232Z,12.09
2018-09-02T00:54:44.020Z,12.09
2018-09-02T00:57:57.767Z,12.11
2018-09-02T01:00:27.956Z,12.09
2018-09-02T01:02:57.774Z,12.08
2018-09-02T01:05:28.268Z,12.08
2018-09-02T01:07:58.605Z,12.07
2018-09-02T01:10:28.574Z,12.07
2018-09-02T01:12:58.431Z,12.05
2018-09-02T01:15:28.293Z,12.09
2018-09-02T01:17:58.136Z,12.10
2018-09-02T01:20:28.015Z,12.11
2018-09-02T01:22:57.879Z,12.04
2018-09-02T01:25:28.196Z,12.03
2018-09-02T01:27:58.379Z,12.03
2018-09-02T01:30:28.226Z,12.10
2018-09-02T01:32:57.997Z,12.12
2018-09-02T01:35:33.315Z,12.11
2018-09-02T01:38:04.925Z,12.10
2018-09-02T01:40:35.696Z,12.10
2018-09-02T01:43:05.915Z,12.14
2018-09-02T01:45:36.057Z,12.11
2018-09-02T01:48:06.336Z,12.12
2018-09-02T01:50:37.694Z,12.13
2018-09-02T01:53:07.978Z,12.11
2018-09-02T01:55:37.808Z,12.08
2018-09-02T01:58:07.659Z,12.07
2018-09-02T02:00:39.295Z,12.10
2018-09-02T02:03:09.596Z,12.11
2018-09-02T02:05:39.850Z,12.16
2018-09-02T02:08:10.458Z,12.08
2018-09-02T02:10:40.350Z,12.20
2018-09-02T02:13:10.182Z,12.16
2018-09-02T02:15:40.115Z,12.12
2018-09-02T02:18:09.884Z,12.10
2018-09-02T02:20:39.732Z,12.14
2018-09-02T02:23:09.516Z,12.15
2018-09-02T02:25:39.376Z,12.25
2018-09-02T02:28:09.530Z,12.14
2018-09-02T02:30:39.868Z,12.24
2018-09-02T02:33:09.682Z,12.23
2018-09-02T02:35:39.487Z,12.21
2018-09-02T02:38:09.485Z,12.28
2018-09-02T02:40:39.456Z,12.20
2018-09-02T02:43:09.244Z,12.20
2018-09-02T02:45:39.776Z,12.22
2018-09-02T02:48:09.938Z,12.22
2018-09-02T02:50:39.818Z,12.26
2018-09-02T02:53:09.727Z,12.36
2018-09-02T02:55:39.756Z,12.49
2018-09-02T02:58:09.577Z,12.53
2018-09-02T03:00:39.405Z,12.55
2018-09-02T03:03:09.422Z,12.52
2018-09-02T03:05:39.222Z,12.37
2018-09-02T03:08:09.071Z,12.44
2018-09-02T03:10:39.125Z,12.37
2018-09-02T03:13:09.522Z,12.34
2018-09-02T03:15:39.696Z,12.31
2018-09-02T03:18:09.865Z,12.26
2018-09-02T03:20:40.421Z,12.21
2018-09-02T03:23:10.274Z,12.23
2018-09-02T03:25:40.153Z,12.21
2018-09-02T03:28:10.137Z,12.22
2018-09-02T03:30:40.600Z,12.23
2018-09-02T03:33:10.441Z,12.22
2018-09-02T03:35:40.231Z,12.27
2018-09-02T03:38:10.033Z,12.27
2018-09-02T03:40:39.985Z,12.22
2018-09-02T03:43:09.807Z,12.30
2018-09-02T03:45:39.594Z,12.34
2018-09-02T03:48:09.380Z,12.42
2018-09-02T03:50:39.263Z,12.52
2018-09-02T03:53:09.759Z,12.49
2018-09-02T03:55:39.631Z,12.56
2018-09-02T03:58:09.779Z,12.45
2018-09-02T04:00:39.818Z,12.33
2018-09-02T04:03:09.575Z,12.36
2018-09-02T04:05:39.401Z,12.35
2018-09-02T04:08:09.591Z,12.39
2018-09-02T04:10:39.387Z,12.31
2018-09-02T04:13:09.235Z,12.34
2018-09-02T04:15:39.898Z,12.31
2018-09-02T04:18:10.069Z,12.33
2018-09-02T04:20:39.889Z,12.28
2018-09-02T04:23:10.039Z,12.28
2018-09-02T04:25:39.823Z,12.28
2018-09-02T04:28:09.624Z,12.26
2018-09-02T04:30:39.481Z,12.35
2018-09-02T04:33:09.255Z,12.41
2018-09-02T04:35:39.024Z,12.46
2018-09-02T04:38:09.213Z,12.44
2018-09-02T04:40:39.069Z,12.40
2018-09-02T04:43:08.886Z,12.48
2018-09-02T04:45:38.665Z,12.39
2018-09-02T04:48:08.862Z,12.39
2018-09-02T04:50:38.667Z,12.48
2018-09-02T04:53:08.802Z,12.53
2018-09-02T04:55:38.595Z,12.41
2018-09-02T04:58:09.002Z,12.42
2018-09-02T05:00:38.880Z,12.41
2018-09-02T05:03:08.714Z,12.44
2018-09-02T05:05:38.602Z,12.48
2018-09-02T05:08:08.425Z,12.46
2018-09-02T05:10:38.237Z,12.58
2018-09-02T05:13:08.185Z,12.53
2018-09-02T05:15:38.143Z,12.67
2018-09-02T05:18:07.979Z,12.64
2018-09-02T05:20:37.883Z,12.75
2018-09-02T05:23:07.763Z,12.93
2018-09-02T05:25:37.578Z,13.02
2018-09-02T05:28:07.805Z,13.09
2018-09-02T05:30:37.667Z,12.79
2018-09-02T05:33:07.867Z,12.88
2018-09-02T05:35:37.724Z,12.91
2018-09-02T05:38:07.584Z,12.78
2018-09-02T05:40:37.728Z,12.78
2018-09-02T05:43:07.652Z,12.95
2018-09-02T05:45:38.064Z,12.92
2018-09-02T05:48:07.926Z,12.97
2018-09-02T05:50:37.714Z,13.05
2018-09-02T05:53:07.858Z,12.94
2018-09-02T05:55:37.714Z,12.93
2018-09-02T05:58:08.764Z,12.71
2018-09-02T06:00:38.648Z,12.56
2018-09-02T06:03:08.744Z,12.51
2018-09-02T06:05:38.668Z,12.51
2018-09-02T06:08:08.878Z,12.51
2018-09-02T06:10:38.760Z,12.53
2018-09-02T06:13:08.832Z,12.40
2018-09-02T06:15:38.626Z,12.42
2018-09-02T06:18:08.386Z,12.62
2018-09-02T06:20:38.181Z,12.56
2018-09-02T06:23:08.086Z,12.44
2018-09-02T06:25:37.877Z,12.59
2018-09-02T06:28:08.119Z,12.72
2018-09-02T06:30:38.216Z,12.90
2018-09-02T06:33:08.303Z,12.96
2018-09-02T06:35:38.396Z,13.09
2018-09-02T06:38:08.346Z,13.11
2018-09-02T06:40:38.463Z,13.24
2018-09-02T06:43:08.302Z,13.35
2018-09-02T06:45:38.236Z,13.37
2018-09-02T06:48:08.291Z,13.57
2018-09-02T06:50:38.080Z,13.52
2018-09-02T06:53:07.920Z,13.66
2018-09-02T06:55:37.693Z,13.81
2018-09-02T06:58:07.889Z,13.61
2018-09-02T07:00:37.841Z,13.78
2018-09-02T07:03:07.811Z,13.68
2018-09-02T07:05:40.551Z,13.65
2018-09-02T07:08:12.118Z,13.79
2018-09-02T07:10:42.737Z,13.75
2018-09-02T07:13:12.561Z,13.69
2018-09-02T07:15:42.349Z,13.76
2018-09-02T07:18:12.155Z,13.80
2018-09-02T07:20:41.964Z,13.65
2018-09-02T07:23:11.865Z,13.62
2018-09-02T07:25:41.824Z,13.78
2018-09-02T07:28:11.900Z,13.95
2018-09-02T07:30:41.803Z,13.95
2018-09-02T07:33:11.696Z,13.95
2018-09-02T07:35:41.865Z,13.98
2018-09-02T07:38:11.781Z,14.08
2018-09-02T07:40:41.828Z,13.99
2018-09-02T07:43:11.869Z,13.86
2018-09-02T07:45:41.715Z,13.87
2018-09-02T07:48:11.580Z,13.76
2018-09-02T07:50:41.417Z,13.75
2018-09-02T07:53:11.465Z,13.55
2018-09-02T07:55:41.583Z,13.41
2018-09-02T07:58:11.517Z,13.21
2018-09-02T08:00:41.365Z,13.28
2018-09-02T08:03:11.531Z,13.29
2018-09-02T08:05:42.315Z,13.28
2018-09-02T08:08:12.225Z,13.33
2018-09-02T08:10:42.081Z,13.32
2018-09-02T08:13:12.015Z,13.27
2018-09-02T08:15:41.789Z,13.37
2018-09-02T08:18:11.941Z,13.33
2018-09-02T08:20:42.385Z,13.22
2018-09-02T08:23:12.360Z,13.24
2018-09-02T08:25:42.501Z,13.26
2018-09-02T08:28:12.657Z,13.27
2018-09-02T08:30:42.552Z,13.25
2018-09-02T08:33:12.687Z,13.21
2018-09-02T08:35:42.479Z,13.29
2018-09-02T08:38:12.876Z,13.48
2018-09-02T08:40:42.695Z,13.50
2018-09-02T08:43:12.565Z,13.38
2018-09-02T08:45:42.650Z,13.40
2018-09-02T08:48:13.037Z,13.37
2018-09-02T08:50:43.416Z,13.40
2018-09-02T08:53:13.497Z,13.43
2018-09-02T08:55:43.331Z,13.53
2018-09-02T08:58:13.140Z,13.55
2018-09-02T09:00:42.933Z,13.60
2018-09-02T09:03:13.220Z,13.59
2018-09-02T09:05:43.044Z,13.35
2018-09-02T09:08:13.458Z,13.40
2018-09-02T09:10:43.429Z,13.40
2018-09-02T09:13:13.271Z,13.42
2018-09-02T09:15:43.199Z,13.42
2018-09-02T09:18:13.276Z,13.45
2018-09-02T09:20:43.330Z,13.51
2018-09-02T09:23:13.402Z,13.62
2018-09-02T09:25:43.168Z,13.67
2018-09-02T09:28:12.979Z,13.69
2018-09-02T09:30:42.757Z,13.79
2018-09-02T09:33:12.439Z,14.00
2018-09-02T09:35:42.187Z,14.36
2018-09-02T09:38:11.949Z,14.68
2018-09-02T09:40:41.839Z,14.73
2018-09-02T09:43:11.601Z,14.71
2018-09-02T09:45:41.321Z,14.68
2018-09-02T09:48:11.068Z,14.54
2018-09-02T09:50:40.830Z,14.46
2018-09-02T09:53:10.570Z,14.52
2018-09-02T09:55:40.362Z,14.48
2018-09-02T09:58:10.575Z,14.31
2018-09-02T10:00:45.902Z,14.15
2018-09-02T10:03:15.660Z,14.08
2018-09-02T10:05:45.438Z,13.98
2018-09-02T10:08:15.471Z,14.12
2018-09-02T10:10:45.551Z,14.16
2018-09-02T10:13:15.334Z,14.09
2018-09-02T10:15:45.221Z,14.14
2018-09-02T10:18:15.048Z,14.07
2018-09-02T10:20:45.368Z,14.10
2018-09-02T10:23:15.091Z,14.12
2018-09-02T10:25:44.889Z,14.30
2018-09-02T10:28:15.034Z,14.59
2018-09-02T10:30:45.165Z,14.66
2018-09-02T10:33:15.099Z,14.80
2018-09-02T10:35:45.136Z,14.87
2018-09-02T10:38:15.082Z,14.97
2018-09-02T10:40:45.390Z,15.03
2018-09-02T10:43:15.210Z,15.08
2018-09-02T10:45:45.072Z,15.02
2018-09-02T10:48:15.204Z,14.88
2018-09-02T10:50:45.568Z,14.68
2018-09-02T10:53:15.392Z,14.61
2018-09-02T10:55:45.988Z,14.61
2018-09-02T10:58:16.064Z,14.44
2018-09-02T11:00:46.301Z,14.44
2018-09-02T11:03:16.152Z,14.53
2018-09-02T11:05:45.950Z,14.57
2018-09-02T11:08:15.992Z,14.52
2018-09-02T11:10:45.792Z,14.44
2018-09-02T11:13:15.631Z,14.54
2018-09-02T11:15:45.760Z,14.50
2018-09-02T11:18:15.887Z,14.60
2018-09-02T11:20:46.002Z,14.75
2018-09-02T11:23:15.828Z,14.79
2018-09-02T11:25:45.684Z,14.79
2018-09-02T11:28:15.560Z,14.74
2018-09-02T11:30:45.486Z,14.66
2018-09-02T11:33:15.352Z,14.71
2018-09-02T11:35:45.240Z,14.87
2018-09-02T11:38:16.239Z,14.81
2018-09-02T11:40:46.176Z,14.69
2018-09-02T11:43:16.069Z,14.75
2018-09-02T11:45:45.920Z,14.81
2018-09-02T11:48:15.804Z,14.85
2018-09-02T11:50:45.620Z,15.04
2018-09-02T11:53:15.399Z,15.07
2018-09-02T11:55:45.499Z,15.21
2018-09-02T11:58:15.292Z,15.24
2018-09-02T12:00:45.127Z,15.11
2018-09-02T12:03:14.976Z,15.10
2018-09-02T12:05:44.759Z,15.19
2018-09-02T12:08:14.503Z,15.37
2018-09-02T12:10:44.275Z,15.53
2018-09-02T12:13:14.038Z,15.63
2018-09-02T12:15:43.868Z,15.52
2018-09-02T12:18:13.730Z,15.67
2018-09-02T12:20:43.792Z,15.60
2018-09-02T12:23:13.648Z,15.34
2018-09-02T12:25:43.428Z,15.38
2018-09-02T12:28:13.194Z,15.32
2018-09-02T12:30:43.568Z,15.47
2018-09-02T12:33:13.378Z,15.36
2018-09-02T12:35:43.202Z,15.52
2018-09-02T12:38:12.969Z,15.52
2018-09-02T12:40:42.818Z,15.59
2018-09-02T12:43:12.688Z,15.66
2018-09-02T12:45:42.506Z,15.98
2018-09-02T12:48:12.336Z,16.03
2018-09-02T12:50:42.288Z,15.90
2018-09-02T12:53:12.498Z,16.02
2018-09-02T12:55:42.348Z,15.89
2018-09-02T12:58:12.183Z,15.85
2018-09-02T13:00:41.996Z,15.96
2018-09-02T13:03:11.798Z,16.16
2018-09-02T13:05:41.799Z,16.15
2018-09-02T13:08:11.582Z,16.33
2018-09-02T13:10:41.438Z,16.31
2018-09-02T13:13:11.320Z,16.07
2018-09-02T13:15:41.141Z,15.97
2018-09-02T13:18:11.060Z,15.70
2018-09-02T13:20:40.796Z,15.54
2018-09-02T13:23:10.626Z,15.48
2018-09-02T13:25:40.463Z,15.39
2018-09-02T13:28:10.330Z,15.32
2018-09-02T13:30:40.157Z,15.10
2018-09-02T13:33:09.950Z,15.08
2018-09-02T13:35:39.767Z,15.09
2018-09-02T13:38:09.804Z,15.02
2018-09-02T13:40:39.665Z,14.99
2018-09-02T13:43:09.611Z,14.99
2018-09-02T13:45:39.814Z,15.04
2018-09-02T13:48:09.617Z,15.11
2018-09-02T13:50:39.534Z,15.08
2018-09-02T13:53:09.503Z,15.06
2018-09-02T13:55:39.395Z,15.08
2018-09-02T13:58:09.209Z,15.11
2018-09-02T14:00:39.189Z,15.10
2018-09-02T14:03:09.108Z,15.11
2018-09-02T14:05:39.100Z,14.99
2018-09-02T14:08:09.071Z,15.07
2018-09-02T14:10:39.364Z,15.06
2018-09-02T14:13:09.287Z,15.09
2018-09-02T14:15:39.229Z,15.17
2018-09-02T14:18:09.267Z,15.26
2018-09-02T14:20:39.148Z,15.28
2018-09-02T14:23:09.348Z,15.31
2018-09-02T14:25:39.212Z,15.28
2018-09-02T14:28:09.080Z,15.25
2018-09-02T14:37:50.800Z,15.39
2018-09-02T14:40:20.992Z,15.30
2018-09-02T14:42:50.966Z,15.37
2018-09-02T14:45:20.974Z,15.38
2018-09-02T14:47:50.968Z,15.44
2018-09-02T14:50:20.968Z,15.47
2018-09-02T14:52:51.040Z,15.48
2018-09-02T14:55:21.092Z,15.49
2018-09-02T14:57:51.149Z,15.53
2018-09-02T15:00:21.104Z,15.47
2018-09-02T15:02:51.038Z,15.51
2018-09-02T15:05:20.879Z,15.44
2018-09-02T15:07:51.051Z,15.45
2018-09-02T15:10:21.386Z,15.45
2018-09-02T15:12:51.324Z,15.45
2018-09-02T15:15:21.514Z,15.47
2018-09-02T15:17:51.573Z,15.44
2018-09-02T15:20:21.431Z,15.29
2018-09-02T15:22:51.352Z,15.22
2018-09-02T15:25:21.246Z,15.17
2018-09-02T15:27:51.455Z,15.22
2018-09-02T15:30:21.876Z,15.22
2018-09-02T15:32:51.780Z,15.23
2018-09-02T15:35:21.890Z,15.20
2018-09-02T15:37:51.814Z,15.18
2018-09-02T15:40:22.238Z,15.11
2018-09-02T15:42:52.235Z,15.13
2018-09-02T15:45:22.091Z,15.11
2018-09-02T15:47:52.062Z,15.13
2018-09-02T15:50:22.095Z,15.06
2018-09-02T15:52:51.920Z,15.10
2018-09-02T15:55:21.798Z,15.08
2018-09-02T15:57:51.829Z,15.04
2018-09-02T16:00:21.732Z,15.01
2018-09-02T16:02:51.758Z,15.09
2018-09-02T16:05:21.973Z,15.03
2018-09-02T16:07:51.920Z,15.04
2018-09-02T16:10:21.815Z,15.11
2018-09-02T16:12:51.790Z,15.13
2018-09-02T16:15:21.684Z,15.16
2018-09-02T16:17:51.508Z,15.03
2018-09-02T16:20:21.325Z,15.07
2018-09-02T16:22:51.207Z,15.15
2018-09-02T16:25:21.515Z,15.12
2018-09-02T16:27:51.339Z,15.09
2018-09-02T16:30:21.684Z,15.11
2018-09-02T16:32:51.613Z,15.04
2018-09-02T16:35:21.476Z,15.02
2018-09-02T16:37:51.473Z,15.01
2018-09-02T16:40:21.378Z,15.06
2018-09-02T16:42:51.263Z,14.96
2018-09-02T16:45:21.128Z,14.95
2018-09-02T16:47:51.214Z,14.97
2018-09-02T16:50:21.128Z,15.00
2018-09-02T16:52:51.042Z,15.05
2018-09-02T16:55:20.990Z,15.00
2018-09-02T16:57:50.798Z,14.97
2018-09-02T17:00:20.824Z,14.97
2018-09-02T17:02:50.792Z,14.97
2018-09-02T17:05:22.167Z,14.91
2018-09-02T17:07:52.723Z,14.88
2018-09-02T17:10:22.602Z,14.84
2018-09-02T17:12:52.656Z,14.82
2018-09-02T17:15:22.670Z,14.86
2018-09-02T17:17:52.548Z,14.78
2018-09-02T17:20:29.397Z,14.85
2018-09-02T17:23:04.484Z,14.86
2018-09-02T17:25:34.360Z,14.90
2018-09-02T17:28:04.294Z,14.85
2018-09-02T17:30:34.138Z,14.83
2018-09-02T17:33:04.064Z,14.89
2018-09-02T17:35:33.924Z,14.82
2018-09-02T17:38:03.872Z,14.81
2018-09-02T17:40:33.712Z,14.84
2018-09-02T17:43:03.634Z,14.89
2018-09-02T17:45:33.672Z,14.88
2018-09-02T17:48:03.532Z,14.92
2018-09-02T17:50:33.387Z,14.93
2018-09-02T17:53:03.217Z,14.83
2018-09-02T17:55:33.135Z,14.81
2018-09-02T17:58:03.250Z,14.78
2018-09-02T18:00:38.956Z,14.75
2018-09-02T18:03:08.861Z,14.78
2018-09-02T18:05:38.704Z,14.77
2018-09-02T18:08:08.680Z,14.75
2018-09-02T18:10:38.938Z,14.85
2018-09-02T18:13:08.876Z,14.96
2018-09-02T18:15:38.769Z,14.86
2018-09-02T18:18:08.667Z,14.88
2018-09-02T18:20:38.556Z,14.83
2018-09-02T18:23:08.632Z,14.72
2018-09-02T18:25:39.061Z,14.88
2018-09-02T18:28:11.486Z,14.89
2018-09-02T18:30:41.556Z,14.95
2018-09-02T18:33:11.794Z,15.06
2018-09-02T18:35:41.969Z,15.09
2018-09-02T18:38:59.939Z,15.19
2018-09-02T18:41:30.414Z,15.17
2018-09-02T18:44:00.326Z,15.11
2018-09-02T18:46:30.291Z,15.15
2018-09-02T18:49:00.447Z,15.20
2018-09-02T18:51:31.431Z,15.13
2018-09-02T18:54:01.965Z,14.98
2018-09-02T18:56:32.129Z,14.89
2018-09-02T18:59:02.121Z,14.83
2018-09-02T19:01:32.603Z,14.78
2018-09-02T19:04:02.816Z,14.81
2018-09-02T19:06:32.678Z,14.89
2018-09-02T19:09:02.867Z,14.96
2018-09-02T19:11:32.941Z,15.02
2018-09-02T19:14:02.793Z,15.00
2018-09-02T19:16:33.006Z,15.07
2018-09-02T19:19:02.846Z,15.03
2018-09-02T19:21:32.945Z,15.02
2018-09-02T19:24:03.190Z,14.95
2018-09-02T19:26:33.557Z,14.90
2018-09-02T19:29:03.815Z,14.97
2018-09-02T19:31:34.037Z,14.98
2018-09-02T19:34:04.113Z,14.94
2018-09-02T19:36:34.052Z,14.75
2018-09-02T19:39:04.475Z,14.79
2018-09-02T19:41:34.685Z,14.77
2018-09-02T19:44:04.813Z,14.88
2018-09-02T19:46:35.819Z,14.86
2018-09-02T19:49:06.695Z,14.68
2018-09-02T19:51:36.807Z,14.59
2018-09-02T19:54:07.247Z,14.48
2018-09-02T19:56:37.175Z,14.34
2018-09-02T19:59:07.909Z,14.30
2018-09-02T20:01:37.804Z,14.16
2018-09-02T20:04:08.235Z,14.12
2018-09-02T20:06:38.500Z,14.06
2018-09-02T20:09:12.348Z,13.99
2018-09-02T20:11:42.244Z,13.92
2018-09-02T20:14:12.739Z,13.90
2018-09-02T20:16:42.663Z,13.88
2018-09-02T20:20:00.683Z,13.86
2018-09-02T20:22:30.598Z,13.81
2018-09-02T20:25:00.754Z,13.86
2018-09-02T20:27:30.633Z,13.88
2018-09-02T20:30:00.647Z,14.00
2018-09-02T20:32:31.735Z,14.01
2018-09-02T20:35:01.542Z,13.98
2018-09-02T20:37:31.425Z,14.18
2018-09-02T20:40:01.292Z,14.29
2018-09-02T20:42:31.145Z,14.29
2018-09-02T20:45:01.309Z,14.42
2018-09-02T20:47:31.136Z,14.49
2018-09-02T20:50:01.035Z,14.57
2018-09-02T20:52:30.864Z,14.47
2018-09-02T20:55:00.924Z,14.41
2018-09-02T20:57:31.761Z,14.25
2018-09-02T21:00:01.617Z,14.16
2018-09-02T21:02:31.577Z,14.09
2018-09-02T21:05:01.589Z,14.13
2018-09-02T21:07:31.523Z,14.25
2018-09-02T21:10:01.379Z,14.28
2018-09-02T21:12:31.295Z,14.31
2018-09-02T21:15:01.166Z,14.43
2018-09-02T21:17:30.978Z,14.38
2018-09-02T21:20:00.884Z,14.50
2018-09-02T21:22:30.726Z,14.49
2018-09-02T21:25:00.740Z,14.58
2018-09-02T21:27:30.574Z,14.56
2018-09-02T21:30:00.568Z,14.46
2018-09-02T21:32:30.596Z,14.47
2018-09-02T21:35:00.450Z,14.46
2018-09-02T21:37:30.265Z,14.52
2018-09-02T21:40:00.062Z,14.60
2018-09-02T21:42:29.980Z,14.51
2018-09-02T21:45:00.220Z,14.24
2018-09-02T21:47:30.150Z,14.10
2018-09-02T21:50:00.160Z,13.97
2018-09-02T21:52:30.104Z,13.86
2018-09-02T21:55:00.098Z,13.78
2018-09-02T21:57:30.147Z,13.69
2018-09-02T22:00:00.095Z,13.64
2018-09-02T22:02:30.226Z,13.63
2018-09-02T22:05:00.284Z,13.78
2018-09-02T22:07:30.616Z,13.93
2018-09-02T22:10:00.540Z,14.07
2018-09-02T22:12:30.594Z,14.12
2018-09-02T22:18:36.238Z,14.26
2018-09-02T22:21:06.168Z,14.28
2018-09-02T22:23:36.177Z,14.33
2018-09-02T22:26:06.315Z,14.37
2018-09-02T22:28:36.335Z,14.46
2018-09-02T22:38:18.292Z,14.54
2018-09-02T22:40:48.218Z,14.65
2018-09-02T22:43:18.128Z,14.58
2018-09-02T22:45:47.995Z,14.37
2018-09-02T22:48:17.914Z,14.34
2018-09-02T22:50:47.909Z,14.14
2018-09-02T22:53:17.775Z,13.95
2018-09-02T22:55:47.665Z,13.79
2018-09-02T22:58:17.499Z,13.63
2018-09-02T23:00:47.338Z,13.62
2018-09-02T23:03:17.525Z,13.56
2018-09-02T23:05:47.315Z,13.55
2018-09-02T23:08:17.189Z,13.48
2018-09-02T23:10:47.311Z,13.42
2018-09-02T23:13:17.460Z,13.52
2018-09-02T23:15:47.604Z,13.61
2018-09-02T23:18:17.625Z,13.61
2018-09-02T23:20:47.499Z,13.78
2018-09-02T23:23:17.581Z,13.77
2018-09-02T23:25:47.459Z,13.60
2018-09-02T23:28:18.388Z,13.55
2018-09-02T23:30:48.456Z,13.59
2018-09-02T23:33:18.314Z,13.68
2018-09-02T23:35:48.120Z,13.60
2018-09-02T23:38:18.320Z,13.55
2018-09-02T23:44:24.237Z,13.88
2018-09-02T23:46:54.141Z,13.96
2018-09-02T23:49:23.945Z,14.13
2018-09-02T23:51:53.749Z,14.03
2018-09-02T23:54:23.584Z,13.92
2018-09-02T23:56:53.527Z,13.98
2018-09-02T23:59:23.460Z,13.87
